Terminal Aerodrome Forecast
Issued by NWS Mt. Holly, NJ

Home | Current Version | Previous Version | Text Only | Print | Product List | Glossary On
Versions: 1 2 3 4 5 6 7 8 9 10 11 12 13 14 15 16 17
000
FTUS41 KPHI 272300
TAFILG
TAF
KILG 272327Z 2800/2824 16004KT P6SM BKN250
     FM280600 21003KT P6SM BKN150
     FM281100 26004KT 6SM -SHRA SCT025 BKN050
     FM281700 28007KT 6SM -SHRA BKN025
     FM282300 31005KT P6SM BKN050 OVC100=

USA.gov is the U.S. government's official web portal to all federal, state and local government web resources and services.